createdAt,value
2023-02-05T00:02:18.271Z,2.40
2023-02-05T00:07:39.103Z,2.70
2023-02-05T00:12:59.799Z,1.45
2023-02-05T00:18:20.608Z,1.85
2023-02-05T00:23:41.952Z,2.15
2023-02-05T00:29:02.898Z,1.60
2023-02-05T00:34:23.821Z,2.03
2023-02-05T00:39:44.510Z,1.60
2023-02-05T00:45:07.318Z,2.13
2023-02-05T00:50:28.856Z,1.77
2023-02-05T00:55:51.008Z,0.80
2023-02-05T01:01:14.291Z,2.95
2023-02-05T01:06:35.550Z,3.22
2023-02-05T01:11:56.206Z,2.63
2023-02-05T01:17:17.254Z,2.05
2023-02-05T01:22:38.176Z,3.30
2023-02-05T01:28:00.214Z,2.03
2023-02-05T01:33:21.557Z,1.95
2023-02-05T01:38:42.143Z,2.45
2023-02-05T01:44:19.204Z,3.50
2023-02-05T01:49:43.737Z,3.30
2023-02-05T01:55:07.630Z,6.60
2023-02-05T02:00:28.725Z,2.15
2023-02-05T02:05:49.431Z,2.85
2023-02-05T02:11:13.749Z,2.53
2023-02-05T02:16:36.901Z,3.10
2023-02-05T02:22:29.857Z,2.13
2023-02-05T02:28:00.214Z,3.97
2023-02-05T02:33:23.462Z,2.75
2023-02-05T02:39:28.356Z,3.85
2023-02-05T02:44:56.833Z,2.80
2023-02-05T02:50:35.402Z,3.08
2023-02-05T02:55:58.740Z,5.57
2023-02-05T03:01:24.201Z,16.23
2023-02-05T03:06:48.524Z,6.97
2023-02-05T03:12:09.544Z,7.07
2023-02-05T03:17:31.967Z,4.30
2023-02-05T03:22:53.058Z,3.22
2023-02-05T03:28:14.329Z,3.83
2023-02-05T03:34:11.498Z,4.68
2023-02-05T03:39:48.507Z,6.53
2023-02-05T03:45:21.464Z,1.48
2023-02-05T03:50:54.339Z,7.15
2023-02-05T03:56:22.310Z,1.77
2023-02-05T04:01:45.655Z,1.75
2023-02-05T04:07:08.106Z,4.05
2023-02-05T04:12:30.342Z,5.60
2023-02-05T04:17:51.048Z,10.25
2023-02-05T04:23:13.164Z,5.72
2023-02-05T04:28:36.346Z,4.38
2023-02-05T04:33:59.534Z,5.25
2023-02-05T04:39:20.836Z,3.13
2023-02-05T04:44:41.495Z,4.72
2023-02-05T04:50:02.221Z,4.70
2023-02-05T04:55:23.117Z,2.83
2023-02-05T05:00:43.898Z,3.03
2023-02-05T05:06:05.801Z,3.25
2023-02-05T05:11:26.645Z,4.85
2023-02-05T05:16:49.629Z,4.45
2023-02-05T05:22:10.377Z,4.85
2023-02-05T05:27:31.199Z,2.92
2023-02-05T05:32:52.014Z,6.85
2023-02-05T05:38:12.887Z,5.68
2023-02-05T05:43:48.736Z,6.50
2023-02-05T05:49:09.729Z,3.35
2023-02-05T05:54:30.697Z,4.05
2023-02-05T05:59:51.220Z,2.53
2023-02-05T06:05:12.975Z,2.55
2023-02-05T06:10:34.194Z,5.85
2023-02-05T06:15:55.048Z,3.80
2023-02-05T06:21:15.676Z,3.92
2023-02-05T06:26:36.452Z,3.70
2023-02-05T06:31:57.054Z,5.57
2023-02-05T06:37:17.823Z,4.03
2023-02-05T06:42:38.720Z,2.78
2023-02-05T06:47:59.692Z,3.80
2023-02-05T06:53:20.606Z,2.53
2023-02-05T06:58:41.217Z,1.98
2023-02-05T07:04:02.300Z,3.17
2023-02-05T07:09:23.815Z,3.88
2023-02-05T07:14:44.684Z,2.85
2023-02-05T07:20:06.246Z,1.98
2023-02-05T07:25:27.151Z,3.13
2023-02-05T07:30:49.805Z,5.15
2023-02-05T07:36:12.219Z,3.53
2023-02-05T07:41:33.417Z,9.07
2023-02-05T07:46:54.603Z,6.88
2023-02-05T07:52:15.836Z,10.43
2023-02-05T07:57:36.533Z,4.63
2023-02-05T08:02:57.400Z,14.48
2023-02-05T08:08:18.326Z,12.75
2023-02-05T08:13:39.015Z,4.95
2023-02-05T08:18:59.715Z,12.60
2023-02-05T08:24:20.495Z,7.53
2023-02-05T08:29:41.900Z,4.07
2023-02-05T08:35:02.792Z,9.80
2023-02-05T08:40:24.289Z,6.63
2023-02-05T08:45:48.421Z,5.10
2023-02-05T08:51:10.681Z,5.25
2023-02-05T08:56:31.900Z,4.03
2023-02-05T09:01:52.421Z,2.95
2023-02-05T09:07:13.229Z,3.38
2023-02-05T09:12:34.241Z,4.25
2023-02-05T09:17:56.397Z,2.78
2023-02-05T09:23:18.769Z,2.55
2023-02-05T09:28:40.268Z,4.97
2023-02-05T09:34:05.701Z,2.40
2023-02-05T09:40:11.980Z,3.90
2023-02-05T09:45:16.372Z,2.47
2023-02-05T09:50:38.133Z,4.30
2023-02-05T09:56:01.649Z,39.38
2023-02-05T10:01:43.701Z,5.25
2023-02-05T10:07:24.200Z,2.15
2023-02-05T10:12:51.938Z,2.63
2023-02-05T10:18:54.521Z,2.17
2023-02-05T10:24:36.894Z,5.28
2023-02-05T10:30:04.164Z,3.30
2023-02-05T10:35:44.418Z,0.93
2023-02-05T10:41:13.284Z,3.75
2023-02-05T10:46:36.584Z,2.80
2023-02-05T10:51:57.418Z,5.65
2023-02-05T10:57:20.984Z,1.52
2023-02-05T11:02:47.532Z,1.83
2023-02-05T11:08:38.951Z,1.75
2023-02-05T11:14:07.014Z,3.20
2023-02-05T11:19:29.039Z,1.88
2023-02-05T11:24:50.101Z,0.80
2023-02-05T11:30:49.955Z,2.55
2023-02-05T11:36:21.609Z,3.73
2023-02-05T11:41:48.662Z,0.73
2023-02-05T11:47:09.765Z,2.28
2023-02-05T11:52:37.668Z,0.75
2023-02-05T11:58:01.489Z,1.20
2023-02-05T12:03:22.741Z,1.63
2023-02-05T12:08:52.220Z,1.48
2023-02-05T12:14:23.027Z,3.38
2023-02-05T12:19:58.469Z,0.93
2023-02-05T12:25:27.574Z,1.10
2023-02-05T12:30:52.549Z,1.75
2023-02-05T12:36:16.197Z,1.42
2023-02-05T12:41:50.336Z,2.67
2023-02-05T12:47:29.517Z,3.55
2023-02-05T12:52:56.244Z,4.78
2023-02-05T12:58:20.513Z,1.90
2023-02-05T13:03:48.455Z,2.70
2023-02-05T13:09:17.606Z,2.70
2023-02-05T13:14:43.539Z,1.80
2023-02-05T13:20:12.332Z,2.47
2023-02-05T13:26:04.631Z,3.58
2023-02-05T13:31:33.203Z,4.28
2023-02-05T13:37:22.883Z,3.00
2023-02-05T13:43:02.429Z,2.78
2023-02-05T13:48:41.971Z,2.28
2023-02-05T13:54:31.311Z,6.03
2023-02-05T13:59:54.407Z,5.90
2023-02-05T14:05:26.962Z,5.68
2023-02-05T14:11:00.657Z,4.20
2023-02-05T14:16:24.530Z,3.85
2023-02-05T14:21:45.107Z,8.43
2023-02-05T14:27:31.344Z,1.63
2023-02-05T14:32:52.138Z,3.15
2023-02-05T14:38:35.690Z,5.43
2023-02-05T14:44:30.239Z,3.53
2023-02-05T14:49:53.225Z,3.90
2023-02-05T14:55:13.864Z,1.73
2023-02-05T15:00:44.647Z,2.40
2023-02-05T15:06:14.032Z,3.63
2023-02-05T15:11:53.394Z,2.43
2023-02-05T15:17:16.142Z,3.50
2023-02-05T15:22:53.731Z,7.07
2023-02-05T15:28:24.636Z,2.47
2023-02-05T15:33:56.601Z,3.58
2023-02-05T15:39:31.243Z,5.40
2023-02-05T15:44:52.565Z,3.47
2023-02-05T15:50:14.925Z,3.42
2023-02-05T15:55:35.858Z,5.25
2023-02-05T16:00:57.422Z,6.40
2023-02-05T16:06:20.259Z,13.07
2023-02-05T16:11:43.051Z,11.70
2023-02-05T16:17:17.197Z,4.47
2023-02-05T16:22:42.833Z,8.43
2023-02-05T16:28:11.242Z,1.63
2023-02-05T16:33:40.973Z,1.98
2023-02-05T16:39:04.774Z,5.22
2023-02-05T16:44:33.236Z,5.70
2023-02-05T16:49:54.614Z,6.65
2023-02-05T16:55:42.848Z,4.95
2023-02-05T17:01:04.274Z,4.55
2023-02-05T17:06:34.166Z,6.55
2023-02-05T17:17:17.459Z,7.88
2023-02-05T17:22:38.260Z,42.60
2023-02-05T17:28:01.653Z,16.48
2023-02-05T17:33:24.483Z,15.00
2023-02-05T17:38:46.692Z,9.50
2023-02-05T17:44:11.651Z,7.57
2023-02-05T17:49:33.677Z,9.80
2023-02-05T17:54:54.374Z,10.18
2023-02-05T18:00:27.680Z,8.88
2023-02-05T18:05:49.309Z,7.22
2023-02-05T18:11:10.738Z,12.23
2023-02-05T18:16:31.857Z,10.27
2023-02-05T18:21:53.305Z,11.73
2023-02-05T18:27:14.031Z,17.30
2023-02-05T18:32:34.932Z,13.65
2023-02-05T18:37:55.644Z,14.10
2023-02-05T18:43:16.638Z,16.05
2023-02-05T18:48:40.760Z,13.65
2023-02-05T18:54:01.717Z,29.92
2023-02-05T18:59:26.127Z,210.88
2023-02-05T19:04:52.050Z,305.23
2023-02-05T19:10:12.751Z,81.10
2023-02-05T19:15:34.751Z,40.35
2023-02-05T19:20:55.635Z,38.58
2023-02-05T19:26:19.318Z,33.97
2023-02-05T19:31:40.496Z,48.15
2023-02-05T19:37:01.884Z,56.78
2023-02-05T19:42:23.111Z,59.55
2023-02-05T19:47:44.065Z,44.30
2023-02-05T19:53:05.298Z,35.78
2023-02-05T19:58:25.938Z,33.88
2023-02-05T20:03:46.849Z,29.58
2023-02-05T20:09:10.882Z,30.08
2023-02-05T20:14:31.600Z,24.75
2023-02-05T20:19:59.650Z,36.47
2023-02-05T20:25:27.068Z,20.75
2023-02-05T20:31:06.241Z,20.95
2023-02-05T20:36:28.338Z,21.58
2023-02-05T20:41:51.520Z,22.80
2023-02-05T20:47:14.567Z,18.33
2023-02-05T20:52:35.266Z,15.43
2023-02-05T20:57:56.029Z,16.65
2023-02-05T21:03:17.060Z,14.25
2023-02-05T21:08:43.393Z,13.65
2023-02-05T21:14:06.997Z,11.48
2023-02-05T21:19:27.977Z,10.48
2023-02-05T21:24:49.634Z,8.27
2023-02-05T21:30:11.309Z,8.90
2023-02-05T21:35:34.535Z,8.98
2023-02-05T21:40:55.410Z,19.77
2023-02-05T21:46:16.636Z,11.07
2023-02-05T21:51:37.746Z,10.57
2023-02-05T21:56:58.368Z,11.48
2023-02-05T22:02:19.032Z,11.95
2023-02-05T22:07:39.958Z,17.20
2023-02-05T22:13:00.534Z,18.08
2023-02-05T22:18:21.261Z,16.70
2023-02-05T22:23:43.885Z,16.80
2023-02-05T22:29:07.203Z,19.63
2023-02-05T22:34:28.156Z,21.80
2023-02-05T22:39:48.877Z,15.50
2023-02-05T22:45:09.818Z,16.55
2023-02-05T22:50:30.630Z,23.15
2023-02-05T22:55:51.274Z,20.48
2023-02-05T23:01:24.482Z,21.30
2023-02-05T23:06:45.309Z,20.48
2023-02-05T23:12:07.103Z,18.63
2023-02-05T23:17:28.101Z,17.13
2023-02-05T23:22:48.619Z,21.73
2023-02-05T23:28:09.547Z,19.42
2023-02-05T23:33:30.651Z,22.02
2023-02-05T23:38:51.390Z,17.65
2023-02-05T23:44:18.259Z,28.55
2023-02-05T23:49:38.864Z,20.98
2023-02-05T23:54:59.493Z,24.10
